Fort Nelson Airport
CYYE : now visible

Airfield :











YOU CAN JOIN US ON...

 
LOGIN :

Register | Disclaimer

   EN    FR    IT 

 









Legend :    VFR   Marginal VFR   IFR   Intensive IFR   Very Intensive IFR
Visi :
Ceiling :
>= 8 km
>= 3000ft
5 to 8 km
1000 to 3000 ft
1500m to 5 km
500 to 1000 ft
800 to 1500m
200 to 500 ft
< 800m
< 200 ft
Symbols :   Thunderstorms  Fog  Heavy snow  Heavy precipitations  Wind > 20 kt







- Airport Elevation : 1253 ft
- IATA code : YYE


CYYE - Fort Nelson

CURRENT METAR :
  • 211000Z 29002KT 15SM FEW018 07/M01 A2982 RMK FU2 SLP105

EXPIRED METARs :
  • 210900Z 31003KT 220V330 15SM SCT018 09/00 A2979 RMK FU4 SLP097
  • 210800Z 35004KT 15SM SCT026 13/M02 A2978 RMK ST4 SLP092 DENSITY ALT 1600FT

TAF TAF CYYE
Valid from the 21 at 07:00 until the 21 at 19:00 UTC


210638Z 2107/2119 VRB03KT P6SM FEW030 RMK NXT FCST BY 211300Z
CZEG FIR / North America



MET'MAP, your aeronautical weather chart ! - Copyright ORBIFLY December 2007 - Disclaimer

ORBIFLY MET'MAP TEAM :

Programming & Development : Alexandra Zaïnal
Concept & Development : Baudouin d'Aumeries
Co-Development & Prog : Marc-Olivier Méhu
Technical & hardware support : Manuel Goepfert

Contact : metmap@orbifly.com




SOURCES & CREDITS :

   NOAA       Earth
Advisory